createdAt,value
2023-05-05T00:02:10.072Z,100522.88
2023-05-05T00:05:13.153Z,100533.09
2023-05-05T00:08:16.046Z,100541.53
2023-05-05T00:11:18.778Z,100531.87
2023-05-05T00:14:21.268Z,100531.63
2023-05-05T00:17:24.011Z,100540.06
2023-05-05T00:20:27.482Z,100526.22
2023-05-05T00:23:30.381Z,100531.87
2023-05-05T00:26:33.018Z,100535.72
2023-05-05T00:29:36.345Z,100537.41
2023-05-05T00:32:38.906Z,100533.44
2023-05-05T00:35:42.199Z,100533.53
2023-05-05T00:38:45.157Z,100530.41
2023-05-05T00:41:49.514Z,100526.75
2023-05-05T00:44:52.516Z,100530.25
2023-05-05T00:47:58.937Z,100524.13
2023-05-05T00:51:01.684Z,100522.22
2023-05-05T00:54:05.940Z,100527.75
2023-05-05T00:57:08.646Z,100528.97
2023-05-05T01:00:12.677Z,100522.97
2023-05-05T01:03:15.524Z,100520.28
2023-05-05T01:06:56.193Z,100522.44
2023-05-05T01:10:51.129Z,100522.97
2023-05-05T01:14:16.336Z,100522.97
2023-05-05T01:17:24.672Z,100521.69
2023-05-05T01:20:36.815Z,100523.53
2023-05-05T01:24:05.200Z,100511.41
2023-05-05T01:27:30.398Z,100518.59
2023-05-05T01:30:46.482Z,100517.47
2023-05-05T01:34:01.984Z,100514.22
2023-05-05T01:37:12.107Z,100517.34
2023-05-05T01:40:20.087Z,100512.25
2023-05-05T01:43:26.246Z,100518.31
2023-05-05T01:46:30.314Z,100516.28
2023-05-05T01:49:36.122Z,100515.03
2023-05-05T01:52:42.182Z,100512.72
2023-05-05T01:55:47.409Z,100511.28
2023-05-05T01:58:51.780Z,100511.00
2023-05-05T02:01:56.858Z,100508.31
2023-05-05T02:05:02.654Z,100512.72
2023-05-05T02:08:06.642Z,100512.72
2023-05-05T02:11:11.223Z,100515.63
2023-05-05T02:14:16.794Z,100512.47
2023-05-05T02:17:21.781Z,100511.75
2023-05-05T02:20:25.270Z,100507.22
2023-05-05T02:23:28.704Z,100515.63
2023-05-05T02:26:35.276Z,100503.50
2023-05-05T02:29:48.881Z,100507.09
2023-05-05T02:33:00.156Z,100506.28
2023-05-05T02:36:21.362Z,100506.16
2023-05-05T02:39:47.422Z,100506.88
2023-05-05T02:42:54.430Z,100504.66
2023-05-05T02:45:58.240Z,100505.94
2023-05-05T02:49:01.949Z,100506.50
2023-05-05T02:52:04.899Z,100508.84
2023-05-05T02:55:08.702Z,100510.47
2023-05-05T02:58:22.253Z,100507.56
2023-05-05T03:01:39.098Z,100512.41
2023-05-05T03:04:48.723Z,100507.00
2023-05-05T03:08:05.402Z,100505.53
2023-05-05T03:11:40.059Z,100511.22
2023-05-05T03:14:46.246Z,100512.69
2023-05-05T03:17:50.519Z,100512.19
2023-05-05T03:20:55.286Z,100513.94
2023-05-05T03:23:58.736Z,100508.03
2023-05-05T03:27:01.577Z,100511.22
2023-05-05T03:30:05.245Z,100511.22
2023-05-05T03:33:11.342Z,100516.78
2023-05-05T03:36:14.758Z,100512.50
2023-05-05T03:39:18.842Z,100511.34
2023-05-05T03:42:22.112Z,100508.69
2023-05-05T03:45:25.467Z,100510.03
2023-05-05T03:48:28.636Z,100513.78
2023-05-05T03:51:31.630Z,100516.50
2023-05-05T03:54:34.604Z,100523.28
2023-05-05T03:57:37.696Z,100518.72
2023-05-05T04:00:40.584Z,100529.84
2023-05-05T04:03:43.910Z,100515.16
2023-05-05T04:06:46.589Z,100518.19
2023-05-05T04:09:49.998Z,100521.91
2023-05-05T04:12:52.701Z,100530.44
2023-05-05T04:16:00.657Z,100528.91
2023-05-05T04:19:03.982Z,100536.63
2023-05-05T04:22:07.936Z,100544.47
2023-05-05T04:25:11.356Z,100540.41
2023-05-05T04:28:14.359Z,100541.25
2023-05-05T04:31:17.286Z,100533.59
2023-05-05T04:34:20.682Z,100533.34
2023-05-05T04:37:25.237Z,100530.97
2023-05-05T04:40:28.790Z,100530.94
2023-05-05T04:43:32.015Z,100533.34
2023-05-05T04:46:36.023Z,100527.91
2023-05-05T04:49:38.988Z,100541.16
2023-05-05T04:52:42.718Z,100544.25
2023-05-05T04:55:45.533Z,100552.84
2023-05-05T04:58:50.508Z,100555.63
2023-05-05T05:01:53.106Z,100552.75
2023-05-05T05:04:56.101Z,100562.06
2023-05-05T05:07:59.690Z,100558.63
2023-05-05T05:11:02.492Z,100559.16
2023-05-05T05:14:05.299Z,100563.69
2023-05-05T05:17:08.312Z,100563.53
2023-05-05T05:20:11.592Z,100565.56
2023-05-05T05:23:14.592Z,100574.94
2023-05-05T05:26:17.556Z,100572.63
2023-05-05T05:29:20.732Z,100577.97
2023-05-05T05:32:23.490Z,100576.91
2023-05-05T05:35:26.500Z,100567.66
2023-05-05T05:38:29.444Z,100567.38
2023-05-05T05:41:33.186Z,100575.31
2023-05-05T05:44:36.329Z,100576.28
2023-05-05T05:47:39.579Z,100576.53
2023-05-05T05:50:42.505Z,100577.94
2023-05-05T05:53:45.676Z,100583.16
2023-05-05T05:56:49.628Z,100588.94
2023-05-05T05:59:53.896Z,100598.81
2023-05-05T06:02:57.006Z,100602.72
2023-05-05T06:06:00.490Z,100601.06
2023-05-05T06:09:03.124Z,100602.22
2023-05-05T06:12:07.217Z,100602.81
2023-05-05T06:15:10.084Z,100598.06
2023-05-05T06:18:13.027Z,100601.31
2023-05-05T06:21:15.634Z,100595.06
2023-05-05T06:24:19.129Z,100596.69
2023-05-05T06:27:21.699Z,100586.34
2023-05-05T06:30:26.117Z,100582.25
2023-05-05T06:33:28.744Z,100586.88
2023-05-05T06:36:32.356Z,100584.28
2023-05-05T06:39:34.907Z,100586.75
2023-05-05T06:42:37.982Z,100588.88
2023-05-05T06:45:43.797Z,100584.00
2023-05-05T06:48:49.054Z,100582.56
2023-05-05T06:51:51.543Z,100584.31
2023-05-05T06:54:54.426Z,100583.63
2023-05-05T06:57:57.020Z,100583.00
2023-05-05T07:01:01.302Z,100586.81
2023-05-05T07:04:04.121Z,100592.53
2023-05-05T07:07:07.026Z,100587.81
2023-05-05T07:10:10.115Z,100589.97
2023-05-05T07:13:15.168Z,100582.38
2023-05-05T07:16:17.898Z,100580.84
2023-05-05T07:19:21.430Z,100572.56
2023-05-05T07:22:24.096Z,100578.22
2023-05-05T07:25:26.896Z,100572.59
2023-05-05T07:28:29.447Z,100569.53
2023-05-05T07:31:32.328Z,100573.09
2023-05-05T07:34:37.000Z,100573.69
2023-05-05T07:37:39.877Z,100570.03
2023-05-05T07:40:42.692Z,100573.66
2023-05-05T07:43:46.050Z,100575.13
2023-05-05T07:46:48.578Z,100579.44
2023-05-05T07:49:51.462Z,100571.06
2023-05-05T07:53:02.493Z,100575.63
2023-05-05T07:56:13.356Z,100575.59
2023-05-05T07:59:15.988Z,100579.34
2023-05-05T08:02:19.090Z,100575.47
2023-05-05T08:05:21.901Z,100582.25
2023-05-05T08:08:25.101Z,100585.25
2023-05-05T08:11:29.742Z,100576.03
2023-05-05T08:14:33.087Z,100574.78
2023-05-05T08:17:46.982Z,100572.63
2023-05-05T08:20:50.426Z,100570.81
2023-05-05T08:23:53.884Z,100569.13
2023-05-05T08:26:56.734Z,100566.41
2023-05-05T08:29:59.838Z,100568.56
2023-05-05T08:33:02.573Z,100566.78
2023-05-05T08:36:06.444Z,100567.88
2023-05-05T08:39:08.962Z,100564.81
2023-05-05T08:42:15.709Z,100571.75
2023-05-05T08:45:22.343Z,100569.78
2023-05-05T08:48:28.414Z,100575.56
2023-05-05T08:51:38.254Z,100565.44
2023-05-05T08:54:48.569Z,100561.09
2023-05-05T08:57:54.541Z,100564.88
2023-05-05T09:00:57.967Z,100558.66
2023-05-05T09:04:01.105Z,100556.47
2023-05-05T09:07:04.620Z,100553.47
2023-05-05T09:10:11.841Z,100553.59
2023-05-05T09:13:15.005Z,100551.03
2023-05-05T09:16:17.699Z,100559.34
2023-05-05T09:19:21.550Z,100554.94
2023-05-05T09:22:36.739Z,100544.12
2023-05-05T09:25:41.253Z,100548.66
2023-05-05T09:28:52.598Z,100537.22
2023-05-05T09:32:08.322Z,100540.44
2023-05-05T09:35:11.291Z,100541.75
2023-05-05T09:38:14.290Z,100540.81
2023-05-05T09:41:36.902Z,100534.53
2023-05-05T09:44:40.823Z,100523.94
2023-05-05T09:47:45.671Z,100519.25
2023-05-05T09:50:48.596Z,100508.03
2023-05-05T09:53:51.121Z,100515.50
2023-05-05T09:56:59.120Z,100508.59
2023-05-05T10:00:04.400Z,100515.63
2023-05-05T10:03:08.233Z,100513.09
2023-05-05T10:06:11.342Z,100516.09
2023-05-05T10:09:15.051Z,100511.34
2023-05-05T10:12:18.291Z,100510.16
2023-05-05T10:15:22.261Z,100506.75
2023-05-05T10:18:27.340Z,100501.59
2023-05-05T10:21:34.862Z,100496.38
2023-05-05T10:24:50.863Z,100504.84
2023-05-05T10:27:55.949Z,100495.75
2023-05-05T10:31:04.252Z,100505.69
2023-05-05T10:34:30.179Z,100488.94
2023-05-05T10:37:33.692Z,100487.53
2023-05-05T10:40:36.397Z,100485.22
2023-05-05T10:43:40.333Z,100490.97
2023-05-05T10:46:44.288Z,100478.16
2023-05-05T10:49:50.307Z,100471.88
2023-05-05T10:53:08.238Z,100477.72
2023-05-05T10:56:25.329Z,100462.81
2023-05-05T10:59:37.159Z,100467.91
2023-05-05T11:02:40.330Z,100460.41
2023-05-05T11:06:05.136Z,100454.44
2023-05-05T11:09:56.930Z,100450.97
2023-05-05T11:13:00.114Z,100452.09
2023-05-05T11:16:03.116Z,100447.16
2023-05-05T11:19:43.674Z,100437.16
2023-05-05T11:23:05.454Z,100429.09
2023-05-05T11:26:11.441Z,100435.97
2023-05-05T11:29:14.642Z,100428.59
2023-05-05T11:32:17.269Z,100426.53
2023-05-05T11:35:20.150Z,100430.25
2023-05-05T11:38:29.820Z,100421.47
2023-05-05T11:41:32.875Z,100424.44
2023-05-05T11:44:36.022Z,100420.66
2023-05-05T11:47:39.050Z,100412.19
2023-05-05T11:50:42.752Z,100406.13
2023-05-05T11:53:49.304Z,100405.31
2023-05-05T11:56:56.684Z,100408.56
2023-05-05T12:00:05.245Z,100404.56
2023-05-05T12:03:08.813Z,100393.00
2023-05-05T12:06:11.461Z,100393.28
2023-05-05T12:09:16.298Z,100390.31
2023-05-05T12:12:19.302Z,100383.59
2023-05-05T12:15:33.120Z,100394.16
2023-05-05T12:18:36.031Z,100388.22
2023-05-05T12:21:40.171Z,100386.66
2023-05-05T12:24:43.174Z,100386.16
2023-05-05T12:27:53.253Z,100378.97
2023-05-05T12:30:57.731Z,100373.94
2023-05-05T12:34:01.899Z,100368.28
2023-05-05T12:37:04.932Z,100370.84
2023-05-05T12:40:29.046Z,100366.63
2023-05-05T12:43:35.301Z,100358.28
2023-05-05T12:46:48.986Z,100358.75
2023-05-05T12:49:52.526Z,100349.91
2023-05-05T12:52:55.382Z,100359.31
2023-05-05T12:55:58.340Z,100344.09
2023-05-05T12:59:04.451Z,100351.72
2023-05-05T13:02:08.338Z,100348.84
2023-05-05T13:05:12.611Z,100333.56
2023-05-05T13:08:15.287Z,100340.03
2023-05-05T13:11:18.546Z,100334.88
2023-05-05T13:14:21.589Z,100328.84
2023-05-05T13:17:24.477Z,100322.78
2023-05-05T13:20:27.324Z,100320.81
2023-05-05T13:23:30.720Z,100317.97
2023-05-05T13:26:33.865Z,100313.38
2023-05-05T13:29:36.775Z,100311.31
2023-05-05T13:32:39.395Z,100313.22
2023-05-05T13:35:42.606Z,100306.53
2023-05-05T13:38:45.546Z,100304.69
2023-05-05T13:41:48.662Z,100302.66
2023-05-05T13:44:51.365Z,100290.72
2023-05-05T13:47:54.226Z,100292.28
2023-05-05T13:50:57.186Z,100291.19
2023-05-05T13:54:00.309Z,100292.78
2023-05-05T13:57:05.221Z,100281.53
2023-05-05T14:00:09.238Z,100288.09
2023-05-05T14:03:12.198Z,100281.97
2023-05-05T14:06:14.815Z,100284.59
2023-05-05T14:09:17.718Z,100277.75
2023-05-05T14:12:20.610Z,100277.28
2023-05-05T14:15:23.449Z,100279.97
2023-05-05T14:18:26.288Z,100277.28
2023-05-05T14:21:29.267Z,100280.94
2023-05-05T14:24:31.749Z,100283.25
2023-05-05T14:27:34.549Z,100272.50
2023-05-05T14:30:37.227Z,100269.31
2023-05-05T14:33:40.106Z,100262.56
2023-05-05T14:36:42.960Z,100260.56
2023-05-05T14:39:46.748Z,100263.75
2023-05-05T14:42:51.100Z,100261.59
2023-05-05T14:45:55.490Z,100264.31
2023-05-05T14:48:59.271Z,100260.87
2023-05-05T14:52:02.128Z,100263.69
2023-05-05T14:55:07.016Z,100249.03
2023-05-05T14:58:10.121Z,100253.81
2023-05-05T15:01:12.750Z,100262.16
2023-05-05T15:04:16.471Z,100261.84
2023-05-05T15:07:20.437Z,100253.16
2023-05-05T15:10:24.670Z,100256.66
2023-05-05T15:13:27.360Z,100254.50
2023-05-05T15:16:30.362Z,100255.19
2023-05-05T15:19:33.888Z,100254.19
2023-05-05T15:22:36.867Z,100251.28
2023-05-05T15:25:39.468Z,100257.97
2023-05-05T15:28:42.421Z,100251.25
2023-05-05T15:31:45.028Z,100250.50
2023-05-05T15:34:51.668Z,100247.34
2023-05-05T15:37:55.368Z,100246.03
2023-05-05T15:40:58.523Z,100246.87
2023-05-05T15:44:03.135Z,100247.66
2023-05-05T15:47:06.853Z,100241.22
2023-05-05T15:50:09.904Z,100235.03
2023-05-05T15:53:12.908Z,100233.37
2023-05-05T15:56:15.849Z,100236.31
2023-05-05T15:59:19.315Z,100235.22
2023-05-05T16:02:23.621Z,100228.16
2023-05-05T16:05:26.434Z,100228.34
2023-05-05T16:08:29.254Z,100230.56
2023-05-05T16:11:32.332Z,100223.97
2023-05-05T16:14:35.037Z,100224.09
2023-05-05T16:17:37.890Z,100215.66
2023-05-05T16:20:40.937Z,100218.06
2023-05-05T16:23:43.851Z,100220.66
2023-05-05T16:26:46.387Z,100222.69
2023-05-05T16:29:49.250Z,100213.87
2023-05-05T16:32:54.973Z,100217.31
2023-05-05T16:36:00.102Z,100207.50
2023-05-05T16:39:02.753Z,100209.56
2023-05-05T16:42:06.388Z,100215.66
2023-05-05T16:45:09.814Z,100218.12
2023-05-05T16:48:13.875Z,100216.53
2023-05-05T16:51:16.654Z,100218.41
2023-05-05T16:54:21.016Z,100212.94
2023-05-05T16:57:23.770Z,100213.41
2023-05-05T17:00:26.724Z,100215.97
2023-05-05T17:03:31.312Z,100221.62
2023-05-05T17:06:34.177Z,100213.00
2023-05-05T17:09:36.673Z,100216.16
2023-05-05T17:12:39.769Z,100217.97
2023-05-05T17:15:44.319Z,100207.03
2023-05-05T17:18:47.294Z,100218.03
2023-05-05T17:21:49.846Z,100216.41
2023-05-05T17:24:52.717Z,100208.34
2023-05-05T17:27:55.521Z,100210.34
2023-05-05T17:30:59.997Z,100210.06
2023-05-05T17:34:02.549Z,100207.03
2023-05-05T17:37:05.462Z,100215.34
2023-05-05T17:40:08.621Z,100214.50
2023-05-05T17:43:11.563Z,100217.53
2023-05-05T17:46:14.066Z,100210.75
2023-05-05T17:49:17.235Z,100220.41
2023-05-05T17:52:23.258Z,100216.47
2023-05-05T17:55:26.462Z,100221.88
2023-05-05T17:58:29.188Z,100217.56
2023-05-05T18:01:32.233Z,100211.22
2023-05-05T18:04:37.850Z,100219.75
2023-05-05T18:07:40.325Z,100229.12
2023-05-05T18:10:43.292Z,100222.31
2023-05-05T18:13:45.998Z,100217.38
2023-05-05T18:16:50.797Z,100222.91
2023-05-05T18:19:53.261Z,100223.59
2023-05-05T18:22:56.250Z,100237.34
2023-05-05T18:25:58.822Z,100239.38
2023-05-05T18:29:01.930Z,100236.03
2023-05-05T18:32:06.079Z,100229.19
2023-05-05T18:35:09.678Z,100236.06
2023-05-05T18:38:12.492Z,100236.19
2023-05-05T18:41:15.656Z,100238.22
2023-05-05T18:44:20.000Z,100245.75
2023-05-05T18:47:23.599Z,100241.25
2023-05-05T18:50:26.864Z,100238.56
2023-05-05T18:53:32.281Z,100245.22
2023-05-05T18:56:34.873Z,100245.09
2023-05-05T18:59:37.707Z,100248.09
2023-05-05T19:02:43.288Z,100251.06
2023-05-05T19:05:46.344Z,100252.94
2023-05-05T19:08:50.046Z,100253.56
2023-05-05T19:11:52.945Z,100256.41
2023-05-05T19:14:55.539Z,100257.03
2023-05-05T19:17:59.245Z,100255.03
2023-05-05T19:21:02.110Z,100258.03
2023-05-05T19:24:08.726Z,100254.50
2023-05-05T19:27:16.557Z,100258.38
2023-05-05T19:30:19.893Z,100256.25
2023-05-05T19:33:22.621Z,100252.94
2023-05-05T19:36:25.953Z,100252.91
2023-05-05T19:39:31.037Z,100255.91
2023-05-05T19:42:34.459Z,100252.03
2023-05-05T19:45:37.292Z,100251.38
2023-05-05T19:48:40.224Z,100255.38
2023-05-05T19:51:42.755Z,100255.72
2023-05-05T19:54:45.735Z,100254.34
2023-05-05T19:57:50.487Z,100253.22
2023-05-05T20:00:53.380Z,100254.56
2023-05-05T20:03:57.258Z,100248.44
2023-05-05T20:06:59.880Z,100251.50
2023-05-05T20:10:02.900Z,100248.09
2023-05-05T20:13:05.605Z,100244.37
2023-05-05T20:16:08.928Z,100238.53
2023-05-05T20:19:11.533Z,100245.28
2023-05-05T20:22:14.603Z,100246.12
2023-05-05T20:25:17.331Z,100242.47
2023-05-05T20:28:20.720Z,100242.59
2023-05-05T20:31:23.337Z,100246.31
2023-05-05T20:34:27.594Z,100245.47
2023-05-05T20:37:30.084Z,100249.12
2023-05-05T20:40:33.672Z,100245.72
2023-05-05T20:43:39.268Z,100245.56
2023-05-05T20:46:42.254Z,100244.59
2023-05-05T20:49:44.840Z,100244.37
2023-05-05T20:52:47.689Z,100242.09
2023-05-05T20:55:50.387Z,100240.81
2023-05-05T20:58:55.407Z,100249.72
2023-05-05T21:01:58.601Z,100247.44
2023-05-05T21:05:05.218Z,100239.16
2023-05-05T21:08:08.173Z,100240.97
2023-05-05T21:11:11.145Z,100236.38
2023-05-05T21:14:13.997Z,100242.09
2023-05-05T21:17:16.893Z,100237.69
2023-05-05T21:20:19.643Z,100235.47
2023-05-05T21:23:22.541Z,100236.00
2023-05-05T21:26:25.216Z,100235.53
2023-05-05T21:29:28.334Z,100234.91
2023-05-05T21:32:31.296Z,100230.72
2023-05-05T21:35:34.309Z,100219.66
2023-05-05T21:38:37.155Z,100223.34
2023-05-05T21:41:39.878Z,100225.75
2023-05-05T21:44:42.387Z,100219.81
2023-05-05T21:47:45.299Z,100217.09
2023-05-05T21:50:47.798Z,100215.91
2023-05-05T21:53:50.800Z,100217.97
2023-05-05T21:56:53.365Z,100215.47
2023-05-05T21:59:56.174Z,100204.56
2023-05-05T22:07:06.267Z,100200.97
2023-05-05T22:10:09.866Z,100208.31
2023-05-05T22:13:13.947Z,100195.59
2023-05-05T22:16:19.804Z,100202.34
2023-05-05T22:19:23.787Z,100202.63
2023-05-05T22:22:26.537Z,100206.81
2023-05-05T22:25:29.120Z,100195.91
2023-05-05T22:28:31.853Z,100201.78
2023-05-05T22:31:35.186Z,100202.94
2023-05-05T22:34:38.170Z,100197.63
2023-05-05T22:37:41.097Z,100199.87
2023-05-05T22:40:43.897Z,100200.59
2023-05-05T22:43:47.532Z,100215.81
2023-05-05T22:46:51.456Z,100212.69
2023-05-05T22:49:53.964Z,100218.28
2023-05-05T22:52:57.093Z,100215.47
2023-05-05T22:55:59.711Z,100215.44
2023-05-05T22:59:03.761Z,100220.44
2023-05-05T23:02:06.318Z,100225.12
2023-05-05T23:05:10.998Z,100224.41
2023-05-05T23:08:13.750Z,100220.91
2023-05-05T23:11:16.712Z,100224.00
2023-05-05T23:14:19.547Z,100219.19
2023-05-05T23:17:23.571Z,100218.31
2023-05-05T23:20:26.205Z,100220.16
2023-05-05T23:23:29.557Z,100210.53
2023-05-05T23:26:32.524Z,100211.22
2023-05-05T23:29:35.477Z,100206.87
2023-05-05T23:32:38.160Z,100206.03
2023-05-05T23:35:43.363Z,100207.16
2023-05-05T23:38:46.132Z,100205.09
2023-05-05T23:41:49.021Z,100199.91
2023-05-05T23:44:52.201Z,100205.09
2023-05-05T23:47:55.269Z,100205.34
2023-05-05T23:50:57.972Z,100204.62
2023-05-05T23:54:01.233Z,100198.38
2023-05-05T23:57:03.852Z,100196.34
